createdAt,value
2022-09-28T12:23:34.352Z,42.32
2022-09-28T12:26:05.743Z,44.62
2022-09-28T12:28:39.395Z,45.22
2022-09-28T12:31:16.093Z,47.63
2022-09-28T12:33:49.043Z,47.15
2022-09-28T12:36:32.552Z,49.28
2022-09-28T12:39:35.706Z,49.89
2022-09-28T12:42:29.165Z,49.69
2022-09-28T12:45:17.443Z,47.53
2022-09-28T12:48:11.537Z,46.54
2022-09-28T12:50:54.547Z,48.01
2022-09-28T12:53:40.455Z,48.93
2022-09-28T12:56:21.539Z,50.08
2022-09-28T12:59:01.887Z,51.40
2022-09-28T13:01:47.951Z,49.57
2022-09-28T13:04:44.046Z,48.71
2022-09-28T13:07:22.241Z,47.44
2022-09-28T13:10:02.420Z,47.58
2022-09-28T13:12:46.232Z,46.80
2022-09-28T13:15:27.764Z,47.77
2022-09-28T13:18:04.171Z,47.38
2022-09-28T13:20:41.183Z,47.38
2022-09-28T13:23:22.700Z,46.18
2022-09-28T13:25:56.536Z,46.55
2022-09-28T13:28:28.321Z,47.00
2022-09-28T13:33:36.768Z,48.05
2022-09-28T13:36:10.728Z,46.87
2022-09-28T13:38:50.892Z,47.45
2022-09-28T13:41:29.065Z,47.60
2022-09-28T13:44:29.213Z,47.48
2022-09-28T13:47:16.869Z,47.08
2022-09-28T13:49:58.661Z,46.05
2022-09-28T13:52:40.844Z,45.04
2022-09-28T13:55:33.015Z,45.75
2022-09-28T13:58:05.344Z,46.64
2022-09-28T14:00:39.758Z,47.22
2022-09-28T14:03:25.270Z,46.25
2022-09-28T14:06:05.820Z,47.45
2022-09-28T14:08:40.239Z,47.65
2022-09-28T14:11:49.818Z,46.50
2022-09-28T14:14:49.224Z,47.38
2022-09-28T14:17:59.064Z,47.17
2022-09-28T14:20:31.458Z,47.37
2022-09-28T14:23:39.657Z,47.49
2022-09-28T14:26:39.575Z,47.87
2022-09-28T14:29:28.438Z,47.22
2022-09-28T14:31:58.293Z,47.49
2022-09-28T14:34:37.593Z,47.67
2022-09-28T14:37:36.695Z,47.03
2022-09-28T14:40:34.612Z,47.36
2022-09-28T14:43:29.377Z,47.80
2022-09-28T14:46:36.131Z,47.04
2022-09-28T14:49:06.638Z,47.86
2022-09-28T14:52:13.562Z,48.20
2022-09-28T14:54:54.571Z,47.51
2022-09-28T14:57:26.481Z,47.96
2022-09-28T14:59:56.982Z,47.93
2022-09-28T15:02:28.960Z,48.09
2022-09-28T15:05:01.015Z,47.61
2022-09-28T15:07:43.422Z,45.94
2022-09-28T15:10:27.313Z,46.66
2022-09-28T15:12:57.649Z,45.89
2022-09-28T15:15:30.832Z,46.06
2022-09-28T15:18:09.405Z,46.25
2022-09-28T15:20:41.631Z,46.41
2022-09-28T15:23:25.600Z,47.01
2022-09-28T15:25:55.091Z,47.42
2022-09-28T15:28:25.180Z,47.23
2022-09-28T15:31:00.625Z,47.06
2022-09-28T15:33:48.280Z,47.56
2022-09-28T15:36:20.693Z,48.06
2022-09-28T15:38:56.513Z,48.59
2022-09-28T15:41:25.559Z,48.73
2022-09-28T15:44:08.469Z,48.51
2022-09-28T15:46:38.716Z,49.01
2022-09-28T15:49:08.373Z,48.91
2022-09-28T15:51:52.163Z,49.76
2022-09-28T15:54:24.937Z,49.29
2022-09-28T15:56:55.067Z,49.91
2022-09-28T15:59:30.765Z,50.34
2022-09-28T16:02:12.784Z,51.38
2022-09-28T16:04:50.472Z,51.37
2022-09-28T16:07:24.752Z,51.38
2022-09-28T16:10:02.784Z,51.47
2022-09-28T16:12:42.088Z,51.74
2022-09-28T16:15:20.186Z,51.41
2022-09-28T16:17:53.367Z,51.84
2022-09-28T16:20:31.978Z,51.27
2022-09-28T16:23:05.949Z,52.52
2022-09-28T16:25:39.457Z,52.64
2022-09-28T16:28:09.069Z,53.18
2022-09-28T16:30:36.936Z,53.90
2022-09-28T16:33:06.753Z,55.57
2022-09-28T16:35:51.331Z,55.40
2022-09-28T16:38:20.462Z,56.03
2022-09-28T16:40:52.676Z,56.89
2022-09-28T16:43:26.860Z,58.30
2022-09-28T16:45:57.610Z,60.16
2022-09-28T16:48:27.932Z,60.37
2022-09-28T16:50:57.608Z,59.85
2022-09-28T16:53:43.502Z,60.42
2022-09-28T16:56:13.801Z,61.24
2022-09-28T16:58:42.538Z,62.14
2022-09-28T17:01:12.927Z,62.33
2022-09-28T17:03:42.664Z,62.13
2022-09-28T17:06:12.968Z,63.49
2022-09-28T17:08:43.068Z,63.71
2022-09-28T17:11:20.149Z,62.77
2022-09-28T17:13:51.843Z,62.64
2022-09-28T17:16:37.285Z,62.51
2022-09-28T17:19:19.746Z,63.40
2022-09-28T17:21:48.189Z,64.55
2022-09-28T17:24:16.122Z,62.83
2022-09-28T17:26:46.940Z,63.07
2022-09-28T17:29:16.440Z,66.56
2022-09-28T17:31:45.621Z,68.38
2022-09-28T17:34:15.228Z,68.38
2022-09-28T17:36:43.867Z,70.43
2022-09-28T17:39:13.927Z,70.51
2022-09-28T17:41:44.731Z,69.62
2022-09-28T17:44:16.201Z,71.21
2022-09-28T17:46:48.660Z,70.61
2022-09-28T17:49:16.936Z,72.15
2022-09-28T17:51:44.834Z,71.96
2022-09-28T17:54:13.730Z,74.03
2022-09-28T17:56:42.425Z,73.96
2022-09-28T17:59:17.384Z,75.17
2022-09-28T18:01:45.520Z,75.85
2022-09-28T18:04:33.264Z,74.18
2022-09-28T18:07:01.477Z,77.92
2022-09-28T18:09:29.471Z,81.26
2022-09-28T18:12:01.078Z,82.56
2022-09-28T18:14:30.440Z,84.05
2022-09-28T18:16:58.439Z,85.50
2022-09-28T18:19:31.700Z,86.46
2022-09-28T18:22:01.449Z,88.14
2022-09-28T18:24:29.500Z,90.31
2022-09-28T18:26:57.334Z,92.38
2022-09-28T18:29:25.216Z,93.49
2022-09-28T18:31:54.445Z,94.71
2022-09-28T18:34:22.301Z,96.02
2022-09-28T18:36:50.148Z,97.21
2022-09-28T18:39:18.060Z,98.35
2022-09-28T18:41:45.924Z,100.00
2022-09-28T18:44:13.777Z,100.00
2022-09-28T18:46:43.606Z,100.00
2022-09-28T18:49:15.968Z,100.00
2022-09-28T18:51:43.824Z,100.00
2022-09-28T18:54:11.665Z,100.00
2022-09-28T18:56:39.506Z,100.00
2022-09-28T18:59:12.276Z,100.00
2022-09-28T19:01:41.514Z,100.00
2022-09-28T19:04:10.960Z,100.00
2022-09-28T19:06:41.552Z,100.00
2022-09-28T19:09:10.433Z,100.00
2022-09-28T19:11:38.307Z,100.00
2022-09-28T19:14:06.156Z,100.00
2022-09-28T19:16:34.726Z,100.00
2022-09-28T19:19:03.304Z,100.00
2022-09-28T19:21:31.820Z,100.00
2022-09-28T19:24:04.006Z,100.00
2022-09-28T19:26:32.910Z,100.00
2022-09-28T19:29:02.165Z,99.71
2022-09-28T19:31:30.169Z,100.00
2022-09-28T19:33:58.218Z,100.00
2022-09-28T19:36:28.555Z,100.00
2022-09-28T19:38:57.817Z,100.00
2022-09-28T19:41:51.020Z,100.00
2022-09-28T19:44:24.576Z,100.00
2022-09-28T19:46:54.739Z,97.81
2022-09-28T19:49:24.038Z,95.18
2022-09-28T19:52:12.769Z,93.36
2022-09-28T19:54:41.201Z,93.51
2022-09-28T19:57:11.575Z,95.46
2022-09-28T19:59:39.760Z,94.78
2022-09-28T20:02:08.863Z,94.49
2022-09-28T20:04:36.789Z,95.96
2022-09-28T20:07:05.465Z,96.60
2022-09-28T20:09:33.779Z,97.28
2022-09-28T20:12:01.945Z,97.20
2022-09-28T20:14:34.206Z,97.57
2022-09-28T20:17:06.155Z,98.32
2022-09-28T20:19:34.988Z,97.64
2022-09-28T20:22:03.437Z,96.80
2022-09-28T20:24:32.011Z,97.30
2022-09-28T20:27:01.352Z,99.07
2022-09-28T20:29:33.330Z,100.00
2022-09-28T20:32:01.829Z,100.00
2022-09-28T20:34:29.706Z,100.00
2022-09-28T20:36:57.578Z,100.00
2022-09-28T20:39:25.422Z,100.00
2022-09-28T20:41:53.593Z,100.00
2022-09-28T20:44:21.608Z,100.00
2022-09-28T20:46:52.845Z,100.00
2022-09-28T20:49:20.681Z,100.00
2022-09-28T20:51:48.681Z,100.00
2022-09-28T20:54:16.681Z,100.00
2022-09-28T20:56:44.814Z,100.00
2022-09-28T20:59:13.729Z,100.00
2022-09-28T21:01:41.911Z,100.00
2022-09-28T21:04:11.830Z,100.00
2022-09-28T21:06:42.078Z,100.00
2022-09-28T21:09:12.209Z,100.00
2022-09-28T21:11:40.314Z,100.00
2022-09-28T21:14:10.367Z,100.00
2022-09-28T21:16:38.506Z,100.00
2022-09-28T21:19:06.366Z,100.00
2022-09-28T21:21:35.831Z,100.00
2022-09-28T21:24:03.879Z,100.00
2022-09-28T21:26:32.290Z,100.00
2022-09-28T21:29:02.112Z,100.00
2022-09-28T21:31:32.782Z,100.00
2022-09-28T21:34:00.975Z,100.00
2022-09-28T21:36:28.851Z,100.00
2022-09-28T21:38:58.501Z,100.00
2022-09-28T21:41:26.835Z,100.00
2022-09-28T21:43:54.791Z,100.00
2022-09-28T21:46:22.792Z,100.00
2022-09-28T21:48:53.674Z,100.00
2022-09-28T21:51:22.147Z,100.00
2022-09-28T21:53:50.315Z,100.00
2022-09-28T21:56:19.531Z,100.00
2022-09-28T21:58:48.169Z,100.00
2022-09-28T22:01:19.530Z,100.00
2022-09-28T22:03:49.198Z,100.00
2022-09-28T22:06:18.415Z,100.00
2022-09-28T22:08:47.061Z,100.00
2022-09-28T22:11:17.258Z,100.00
2022-09-28T22:13:48.438Z,100.00
2022-09-28T22:16:18.539Z,100.00
2022-09-28T22:18:46.983Z,100.00
2022-09-28T22:21:16.772Z,100.00
2022-09-28T22:23:44.801Z,100.00
2022-09-28T22:26:15.241Z,100.00
2022-09-28T22:28:48.172Z,100.00
2022-09-28T22:31:16.898Z,100.00
2022-09-28T22:33:45.096Z,100.00
2022-09-28T22:36:16.675Z,100.00
2022-09-28T22:38:44.932Z,100.00
2022-09-28T22:41:13.640Z,100.00
2022-09-28T22:43:41.465Z,100.00
2022-09-28T22:46:12.631Z,100.00
2022-09-28T22:48:42.311Z,100.00
2022-09-28T22:51:10.197Z,100.00
2022-09-28T22:53:38.311Z,100.00
2022-09-28T22:56:07.003Z,100.00
2022-09-28T22:58:36.078Z,100.00
2022-09-28T23:01:08.486Z,100.00
2022-09-28T23:03:40.066Z,100.00
2022-09-28T23:06:09.174Z,100.00
2022-09-28T23:08:37.351Z,100.00
2022-09-28T23:11:05.798Z,100.00
2022-09-28T23:13:33.802Z,100.00
2022-09-28T23:16:03.760Z,100.00
2022-09-28T23:18:34.515Z,100.00
2022-09-28T23:21:05.944Z,100.00
2022-09-28T23:23:34.424Z,100.00
2022-09-28T23:26:10.396Z,100.00
2022-09-28T23:28:38.276Z,100.00
2022-09-28T23:31:09.712Z,100.00
2022-09-28T23:33:37.583Z,100.00
2022-09-28T23:36:07.937Z,100.00
2022-09-28T23:38:35.891Z,100.00
2022-09-28T23:41:03.781Z,100.00
2022-09-28T23:43:31.634Z,100.00
2022-09-28T23:45:59.536Z,100.00
2022-09-28T23:48:27.433Z,100.00
2022-09-28T23:50:55.358Z,100.00
2022-09-28T23:53:24.599Z,100.00
2022-09-28T23:55:52.495Z,100.00
2022-09-28T23:58:20.423Z,100.00
